createdAt,value
2014-10-17T13:31:28.332Z,259
2014-10-17T13:31:46.535Z,268
2014-10-17T13:32:04.723Z,251
2014-10-17T13:32:22.929Z,269
2014-10-17T13:32:41.132Z,270
2014-10-17T13:32:59.335Z,264
2014-10-17T13:33:17.522Z,273
2014-10-17T13:33:35.728Z,274
2014-10-17T13:33:53.931Z,256
2014-10-17T13:34:12.134Z,271
2014-10-17T13:34:30.340Z,255
2014-10-17T13:34:48.543Z,273
2014-10-17T13:35:06.746Z,270
2014-10-17T13:35:24.934Z,256
2014-10-17T13:35:43.154Z,256
2014-10-17T13:36:01.342Z,266
2014-10-17T13:36:19.545Z,272
2014-10-17T13:36:37.751Z,269
2014-10-17T13:36:55.954Z,267
2014-10-17T13:37:14.142Z,252
2014-10-17T13:37:32.345Z,272
2014-10-17T13:37:50.550Z,256
2014-10-17T13:38:08.800Z,268
2014-10-17T13:38:27.003Z,271
2014-10-17T13:38:45.208Z,273
2014-10-17T13:39:03.411Z,261
2014-10-17T13:39:21.615Z,267
2014-10-17T13:39:39.818Z,273
2014-10-17T13:39:58.024Z,276
2014-10-17T13:40:16.227Z,278
2014-10-17T13:40:34.414Z,265
2014-10-17T13:40:52.620Z,273
2014-10-17T13:41:10.823Z,291
2014-10-17T13:41:29.041Z,288
2014-10-17T13:41:47.245Z,277
2014-10-17T13:42:05.456Z,289
2014-10-17T13:42:23.659Z,271
2014-10-17T13:42:41.862Z,284
2014-10-17T13:43:00.080Z,283
2014-10-17T13:43:18.299Z,279
2014-10-17T13:43:36.486Z,297
2014-10-17T13:43:54.689Z,293
2014-10-17T13:44:12.909Z,293
2014-10-17T13:44:31.112Z,296
2014-10-17T13:44:49.315Z,295
2014-10-17T13:45:07.549Z,296
2014-10-17T13:45:25.752Z,307
2014-10-17T13:45:43.955Z,303
2014-10-17T13:46:02.173Z,302
2014-10-17T13:46:20.360Z,293
2014-10-17T13:46:38.564Z,295
2014-10-17T13:46:56.767Z,293
2014-10-17T13:47:15.076Z,286
2014-10-17T13:47:33.232Z,299
2014-10-17T13:47:51.451Z,292
2014-10-17T13:48:09.675Z,288
2014-10-17T13:48:27.863Z,289
2014-10-17T13:48:46.066Z,301
2014-10-17T13:49:04.269Z,282
2014-10-17T13:49:22.480Z,271
2014-10-17T13:49:40.730Z,294
2014-10-17T13:49:58.918Z,283
2014-10-17T13:50:17.127Z,284
2014-10-17T13:50:35.330Z,281
2014-10-17T13:50:53.533Z,284
2014-10-17T13:51:11.736Z,277
2014-10-17T13:51:29.962Z,273
2014-10-17T13:51:48.149Z,288
2014-10-17T13:52:06.384Z,276
2014-10-17T13:52:24.561Z,274
2014-10-17T13:52:42.811Z,292
2014-10-17T13:53:00.998Z,278
2014-10-17T13:53:19.217Z,289
2014-10-17T13:53:37.408Z,292
2014-10-17T13:53:55.612Z,287
2014-10-17T13:54:13.815Z,283
2014-10-17T13:54:32.022Z,276
2014-10-17T14:08:00.747Z,391
2014-10-17T14:08:18.937Z,395
2014-10-17T14:08:37.140Z,101
2014-10-17T14:08:55.343Z,99
2014-10-17T14:09:13.548Z,97
2014-10-17T14:09:31.751Z,95
2014-10-17T14:09:49.954Z,93
2014-10-17T14:10:08.158Z,91
2014-10-17T14:10:26.348Z,90
2014-10-17T14:10:44.551Z,90
2014-10-17T14:11:02.754Z,770
2014-10-17T14:11:20.960Z,82
2014-10-17T14:11:39.148Z,80
2014-10-17T14:11:57.351Z,79
2014-10-17T14:12:15.554Z,78
2014-10-17T14:12:33.744Z,77
2014-10-17T14:12:51.947Z,78
2014-10-17T14:13:10.150Z,78
2014-10-17T14:13:28.355Z,78
2014-10-17T14:13:46.543Z,79
2014-10-17T14:14:04.746Z,83
2014-10-17T14:14:22.949Z,82
2014-10-17T14:14:41.139Z,86
2014-10-17T14:14:59.342Z,103
2014-10-17T14:15:17.546Z,104
2014-10-17T14:15:35.751Z,92
2014-10-17T14:15:53.938Z,92
2014-10-17T14:16:12.157Z,99
2014-10-17T14:16:30.344Z,101
2014-10-17T14:16:48.551Z,101
2014-10-17T14:17:06.754Z,100
2014-10-17T14:17:24.941Z,101
2014-10-17T14:17:43.146Z,99
2014-10-17T14:18:01.349Z,99
2014-10-17T14:18:19.553Z,99
2014-10-17T14:18:37.740Z,98
2014-10-17T14:18:55.946Z,98
2014-10-17T14:19:14.149Z,97
2014-10-17T14:19:32.352Z,96
2014-10-17T14:19:50.542Z,89
2014-10-17T14:20:08.745Z,85
2014-10-17T14:20:26.948Z,89
2014-10-17T14:20:45.136Z,90
2014-10-17T14:21:03.342Z,92
2014-10-17T14:21:21.545Z,93
2014-10-17T14:21:39.748Z,92
2014-10-17T14:21:57.938Z,91
2014-10-17T14:22:16.141Z,90
2014-10-17T14:22:34.344Z,89
2014-10-17T14:22:52.547Z,88
2014-10-17T14:23:10.736Z,88
2014-10-17T14:23:28.940Z,86
2014-10-17T14:23:47.143Z,85
2014-10-17T14:24:05.349Z,78
2014-10-17T14:24:23.536Z,82
2014-10-17T14:24:41.739Z,83
2014-10-17T14:24:59.943Z,75
2014-10-17T14:25:18.149Z,71
2014-10-17T14:25:36.352Z,73
2014-10-17T14:25:54.539Z,74
2014-10-17T14:26:12.744Z,78
2014-10-17T14:26:30.948Z,79
2014-10-17T14:26:49.151Z,80
2014-10-17T14:27:07.354Z,90
2014-10-17T14:27:25.544Z,93
2014-10-17T14:27:43.747Z,93
2014-10-17T14:28:01.951Z,95
2014-10-17T14:28:20.156Z,99
2014-10-17T14:28:38.343Z,101
2014-10-17T14:28:56.546Z,105
2014-10-17T14:29:14.749Z,108
2014-10-17T14:29:32.955Z,91
2014-10-17T14:29:51.158Z,110
2014-10-17T14:30:09.361Z,113
2014-10-17T14:30:27.567Z,114
2014-10-17T14:30:45.754Z,114
2014-10-17T14:31:03.958Z,115
2014-10-17T14:31:22.176Z,115
2014-10-17T14:31:40.366Z,116
2014-10-17T14:31:58.569Z,119
2014-10-17T14:32:16.772Z,119
2014-10-17T14:32:34.977Z,119
2014-10-17T14:32:53.180Z,119
2014-10-17T14:33:11.383Z,121
2014-10-17T14:33:29.587Z,123
2014-10-17T14:33:47.777Z,122
2014-10-17T14:34:05.980Z,120
2014-10-17T14:34:24.183Z,120
2014-10-17T14:34:42.388Z,119
2014-10-17T14:35:00.592Z,118
2014-10-17T14:35:18.795Z,116
2014-10-17T14:35:36.998Z,115
2014-10-17T14:35:55.188Z,113
2014-10-17T14:36:13.391Z,111
2014-10-17T14:36:31.595Z,109
2014-10-17T14:36:49.800Z,107
2014-10-17T14:37:08.003Z,107
2014-10-17T14:37:26.206Z,106
2014-10-17T14:37:44.409Z,106
2014-10-17T14:38:02.614Z,106
2014-10-17T14:38:20.817Z,106
2014-10-17T14:38:39.020Z,106
2014-10-17T14:38:57.212Z,105
2014-10-17T14:39:15.415Z,106
2014-10-17T14:39:33.618Z,105
2014-10-17T14:39:51.837Z,102
2014-10-17T14:40:10.026Z,101
2014-10-17T14:40:28.230Z,99
2014-10-17T14:40:46.433Z,98
2014-10-17T14:41:04.622Z,97
2014-10-17T14:41:22.825Z,96
2014-10-17T14:41:41.028Z,95
2014-10-17T14:41:59.216Z,95
2014-10-17T14:42:17.422Z,95
2014-10-17T14:42:35.625Z,95
2014-10-17T14:42:53.828Z,95
2014-10-17T14:43:12.033Z,93
2014-10-17T14:43:30.221Z,90
2014-10-17T14:43:48.424Z,88
2014-10-17T14:44:06.627Z,85
2014-10-17T14:44:24.817Z,81
2014-10-17T14:44:43.020Z,78
2014-10-17T14:45:01.223Z,74
2014-10-17T14:45:19.428Z,71
2014-10-17T14:45:37.616Z,69
2014-10-17T14:45:55.819Z,67
2014-10-17T14:46:14.022Z,67
2014-10-17T14:46:32.260Z,67
2014-10-17T14:46:50.448Z,67
2014-10-17T14:47:08.651Z,67
2014-10-17T14:47:26.839Z,67
2014-10-17T14:47:45.042Z,68
2014-10-17T14:48:03.246Z,67
2014-10-17T14:48:21.433Z,67
2014-10-17T14:48:39.640Z,66
2014-10-17T14:48:57.843Z,66
2014-10-17T14:49:16.046Z,65
2014-10-17T14:49:34.236Z,64
2014-10-17T14:49:52.439Z,64
2014-10-17T14:50:10.642Z,64
2014-10-17T14:50:28.845Z,64
2014-10-17T14:50:47.050Z,63
2014-10-17T14:51:05.254Z,63
2014-10-17T14:51:23.441Z,62
2014-10-17T14:51:41.646Z,62
2014-10-17T14:51:59.849Z,63
2014-10-17T14:52:18.052Z,63
2014-10-17T14:52:36.240Z,64
2014-10-17T14:52:54.446Z,65
2014-10-17T14:53:12.649Z,66
2014-10-17T14:53:30.852Z,68
2014-10-17T14:53:49.073Z,69
2014-10-17T14:54:07.261Z,70
2014-10-17T14:54:25.448Z,70
2014-10-17T14:54:43.651Z,70
2014-10-17T14:55:01.857Z,70
2014-10-17T14:55:20.060Z,69
2014-10-17T14:55:38.264Z,68
2014-10-17T14:55:56.453Z,67
2014-10-17T14:56:14.656Z,67
2014-10-17T14:56:32.859Z,66
2014-10-17T14:56:51.062Z,66
2014-10-17T14:57:09.269Z,66
2014-10-17T14:57:27.456Z,66
2014-10-17T14:57:45.659Z,67
2014-10-17T14:58:03.864Z,66
2014-10-17T14:58:22.067Z,66
2014-10-17T14:58:40.271Z,65
2014-10-17T14:58:58.458Z,64
2014-10-17T14:59:16.664Z,64
2014-10-17T14:59:34.867Z,63
2014-10-17T14:59:53.070Z,63
2014-10-17T15:00:11.276Z,62
2014-10-17T15:00:29.463Z,61
2014-10-17T15:00:47.666Z,61
2014-10-17T15:01:05.869Z,61
2014-10-17T15:01:24.075Z,62
2014-10-17T15:01:42.279Z,63
2014-10-17T15:02:00.466Z,63
2014-10-17T15:02:18.671Z,62
2014-10-17T15:02:36.874Z,62
2014-10-17T15:02:55.077Z,63
2014-10-17T15:03:13.281Z,62
2014-10-17T15:03:31.471Z,62
2014-10-17T15:03:49.674Z,62
2014-10-17T15:04:07.877Z,61
2014-10-17T15:04:26.082Z,61
2014-10-17T15:04:44.270Z,60
2014-10-17T15:05:02.473Z,60
2014-10-17T15:05:20.676Z,59
2014-10-17T15:05:38.881Z,59
2014-10-17T15:05:57.069Z,59
2014-10-17T15:06:15.272Z,59
2014-10-17T15:06:33.477Z,58
2014-10-17T15:06:51.680Z,58
2014-10-17T15:07:09.883Z,58
2014-10-17T15:07:28.086Z,58
2014-10-17T15:07:46.293Z,57
2014-10-17T15:08:04.496Z,57
2014-10-17T15:08:22.699Z,57
2014-10-17T15:08:40.905Z,57
2014-10-17T15:08:59.108Z,57
2014-10-17T15:09:17.311Z,57
2014-10-17T15:09:35.499Z,57
2014-10-17T15:09:53.704Z,57
2014-10-17T15:10:11.907Z,57
2014-10-17T15:10:30.094Z,58
2014-10-17T15:10:48.301Z,59
2014-10-17T15:11:06.504Z,60
2014-10-17T15:11:24.707Z,61
2014-10-17T15:11:42.910Z,63
2014-10-17T15:12:01.099Z,64
2014-10-17T15:12:19.303Z,64
2014-10-17T15:12:37.506Z,64
2014-10-17T15:12:55.712Z,64
2014-10-17T15:13:13.915Z,62
2014-10-17T15:13:32.102Z,61
2014-10-17T15:13:50.306Z,59
2014-10-17T15:14:08.511Z,57
2014-10-17T15:14:26.698Z,56
2014-10-17T15:14:44.901Z,54
2014-10-17T15:15:03.106Z,52
2014-10-17T15:15:21.310Z,51
2014-10-17T15:15:39.513Z,49
2014-10-17T15:15:57.700Z,48
2014-10-17T15:16:15.922Z,48
2014-10-17T15:16:34.125Z,47
2014-10-17T15:16:52.313Z,46
2014-10-17T15:17:10.518Z,46
2014-10-17T15:17:28.721Z,45
2014-10-17T15:17:46.924Z,56
2014-10-17T15:18:05.127Z,55
2014-10-17T15:18:23.317Z,57
2014-10-17T15:18:41.520Z,43
2014-10-17T15:18:59.723Z,43
2014-10-17T15:19:17.929Z,42
2014-10-17T15:19:36.132Z,41
2014-10-17T15:19:54.335Z,41
2014-10-17T15:20:12.538Z,40
2014-10-17T15:20:30.729Z,40
2014-10-17T15:20:48.932Z,39
2014-10-17T15:21:07.135Z,39
2014-10-17T15:21:25.340Z,39
2014-10-17T15:21:43.528Z,39
2014-10-17T15:22:01.746Z,39
2014-10-17T15:22:19.950Z,39
2014-10-17T15:22:38.156Z,39
2014-10-17T15:22:56.359Z,40
2014-10-17T15:23:14.546Z,40
2014-10-17T15:23:32.751Z,41
2014-10-17T15:23:50.955Z,41
2014-10-17T15:24:09.158Z,42
2014-10-17T15:24:27.345Z,43
2014-10-17T15:24:45.551Z,43
2014-10-17T15:25:03.754Z,43
2014-10-17T15:25:21.973Z,43
2014-10-17T15:25:40.163Z,43
2014-10-17T15:25:58.350Z,42
2014-10-17T15:26:16.553Z,41
2014-10-17T15:26:34.756Z,38
2014-10-17T15:26:52.977Z,36
2014-10-17T15:27:11.165Z,36
2014-10-17T15:27:29.368Z,37
2014-10-17T15:27:47.557Z,37
2014-10-17T15:28:05.760Z,38
2014-10-17T15:28:23.964Z,38
2014-10-17T15:28:42.182Z,38
2014-10-17T15:29:00.373Z,38
2014-10-17T15:29:18.576Z,38
2014-10-17T15:29:36.779Z,37
2014-10-17T15:29:54.985Z,36
2014-10-17T15:30:13.173Z,34
2014-10-17T15:30:31.376Z,31
2014-10-17T15:30:49.579Z,30
2014-10-17T15:31:07.784Z,30
2014-10-17T15:31:25.987Z,30
2014-10-17T15:31:44.190Z,30
2014-10-17T15:32:02.381Z,30
2014-10-17T15:32:20.428Z,30
2014-10-17T15:32:38.615Z,30
2014-10-17T15:32:56.818Z,30
2014-10-17T15:33:15.023Z,29
2014-10-17T15:33:33.227Z,29
2014-10-17T15:33:51.430Z,28
2014-10-17T15:34:09.619Z,28
2014-10-17T15:34:27.822Z,27
2014-10-17T15:34:46.025Z,27
2014-10-17T15:35:04.229Z,27
2014-10-17T15:35:22.435Z,27
2014-10-17T15:35:40.638Z,27
2014-10-17T15:35:58.841Z,27
2014-10-17T15:36:17.030Z,27
2014-10-17T15:36:35.234Z,27
2014-10-17T15:36:53.437Z,26
2014-10-17T15:37:11.624Z,26
2014-10-17T15:37:29.830Z,26
2014-10-17T15:37:48.033Z,26
2014-10-17T15:38:06.237Z,26
2014-10-17T15:38:24.442Z,26
2014-10-17T15:38:42.629Z,26
2014-10-17T15:39:00.832Z,25
2014-10-17T15:39:19.035Z,25
2014-10-17T15:39:37.226Z,25
2014-10-17T15:39:55.429Z,25
2014-10-17T15:40:13.632Z,25
2014-10-17T15:40:31.822Z,24
2014-10-17T15:40:50.025Z,24
2014-10-17T15:41:08.228Z,24
2014-10-17T15:41:26.431Z,24
2014-10-17T15:41:44.636Z,24
2014-10-17T15:42:02.824Z,24
2014-10-17T15:42:21.027Z,23
2014-10-17T15:42:39.233Z,23
2014-10-17T15:42:57.436Z,23
2014-10-17T15:43:15.639Z,22
2014-10-17T15:43:33.827Z,22
2014-10-17T15:43:52.032Z,22
2014-10-17T15:44:10.235Z,22
2014-10-17T15:44:28.438Z,22
2014-10-17T15:44:46.643Z,21
2014-10-17T15:45:04.846Z,21
2014-10-17T15:45:23.065Z,21
2014-10-17T15:45:41.237Z,21
2014-10-17T15:45:59.443Z,20
2014-10-17T15:46:17.646Z,20
2014-10-17T15:46:35.834Z,20
2014-10-17T15:46:54.040Z,19
2014-10-17T15:47:12.227Z,19
2014-10-17T15:47:30.430Z,19
2014-10-17T15:47:48.634Z,18
2014-10-17T15:48:06.839Z,18
2014-10-17T15:48:25.026Z,17
2014-10-17T15:48:43.229Z,17
2014-10-17T15:49:01.434Z,17
2014-10-17T15:49:19.638Z,17
2014-10-17T15:49:37.825Z,16
2014-10-17T15:49:56.028Z,16
2014-10-17T15:50:14.234Z,16
2014-10-17T15:50:32.422Z,16
2014-10-17T15:50:50.625Z,15
2014-10-17T15:51:08.830Z,15
2014-10-17T15:51:27.018Z,15
2014-10-17T15:51:45.221Z,15
2014-10-17T15:52:03.424Z,15
2014-10-17T15:52:21.614Z,15
2014-10-17T15:52:39.817Z,15
2014-10-17T15:52:58.021Z,770
2014-10-17T15:53:16.226Z,238
2014-10-17T15:53:34.429Z,276
2014-10-17T15:53:52.632Z,287
2014-10-17T15:54:10.898Z,282
2014-10-17T15:54:29.104Z,303
2014-10-17T15:54:47.307Z,339
2014-10-17T15:55:05.510Z,339
2014-10-17T15:55:23.715Z,337
2014-10-17T15:55:41.918Z,336
2014-10-17T15:56:00.121Z,342
2014-10-17T15:56:18.324Z,368
2014-10-17T15:56:36.531Z,354
2014-10-17T15:56:54.734Z,346
2014-10-17T15:57:12.952Z,344
2014-10-17T15:57:31.143Z,374
2014-10-17T15:57:49.346Z,353
2014-10-17T15:58:07.549Z,376
2014-10-17T15:58:25.752Z,355
2014-10-17T15:58:43.957Z,374
2014-10-17T15:59:02.145Z,348
2014-10-17T15:59:20.348Z,376
2014-10-17T15:59:38.553Z,359
2014-10-17T15:59:56.756Z,360
2014-10-17T16:00:14.959Z,363
2014-10-17T16:00:33.163Z,341
2014-10-17T16:00:51.353Z,366
2014-10-17T16:01:09.556Z,360
2014-10-17T16:01:27.775Z,372
2014-10-17T16:01:45.964Z,375
2014-10-17T16:02:04.199Z,350
2014-10-17T16:02:22.464Z,343
2014-10-17T16:02:40.668Z,379
2014-10-17T16:02:58.874Z,367
2014-10-17T16:03:17.077Z,361
2014-10-17T16:03:35.280Z,371
2014-10-17T16:03:53.484Z,339
2014-10-17T16:04:11.687Z,362
2014-10-17T16:04:29.890Z,365
2014-10-17T16:04:48.093Z,353
2014-10-17T16:05:06.300Z,340
2014-10-17T16:05:24.487Z,349
2014-10-17T16:05:42.690Z,342
2014-10-17T16:06:00.895Z,364
2014-10-17T16:06:19.098Z,375
2014-10-17T16:06:37.302Z,346
2014-10-17T16:06:55.505Z,361
2014-10-17T16:07:13.712Z,342
2014-10-17T16:07:31.915Z,352
2014-10-17T16:07:50.102Z,374
2014-10-17T16:08:08.308Z,355
2014-10-17T16:08:26.511Z,358
2014-10-17T16:08:44.714Z,341
2014-10-17T16:09:02.917Z,375
2014-10-17T16:09:21.122Z,363
2014-10-17T16:09:39.325Z,338
2014-10-17T16:09:57.528Z,360
2014-10-17T16:10:15.733Z,371
2014-10-17T16:10:33.921Z,367
2014-10-17T16:10:52.124Z,369
2014-10-17T16:11:10.327Z,345
2014-10-17T16:11:28.533Z,347
2014-10-17T16:11:46.721Z,372
2014-10-17T16:12:04.924Z,346
2014-10-17T16:12:23.129Z,367
2014-10-17T16:12:41.317Z,342
2014-10-17T16:12:59.520Z,362
2014-10-17T16:13:17.723Z,340
2014-10-17T16:13:35.929Z,374
2014-10-17T16:13:54.116Z,363
2014-10-17T16:14:12.320Z,344
2014-10-17T16:14:30.525Z,357
2014-10-17T16:14:48.728Z,376
2014-10-17T16:15:06.931Z,375
2014-10-17T16:15:25.134Z,339
2014-10-17T16:15:43.340Z,369
2014-10-17T16:16:01.543Z,368
2014-10-17T16:16:19.746Z,349
2014-10-17T16:16:37.952Z,369
2014-10-17T16:16:56.155Z,358
2014-10-17T16:17:14.358Z,362
2014-10-17T16:17:32.561Z,358
2014-10-17T16:17:50.766Z,361
2014-10-17T16:18:08.969Z,339
2014-10-17T16:18:27.172Z,361
2014-10-17T16:18:45.378Z,372
2014-10-17T16:19:03.566Z,369
2014-10-17T16:19:21.769Z,371
2014-10-17T16:19:39.972Z,369
2014-10-17T16:19:58.178Z,370
2014-10-17T16:20:16.381Z,337
2014-10-17T16:20:34.585Z,351
2014-10-17T16:20:52.789Z,362
2014-10-17T16:21:11.023Z,369
2014-10-17T16:21:29.226Z,343
2014-10-17T16:21:47.429Z,349
2014-10-17T16:22:05.635Z,344
2014-10-17T16:22:23.839Z,374
2014-10-17T16:22:42.042Z,350
2014-10-17T16:23:00.231Z,337
2014-10-17T16:23:18.434Z,373
2014-10-17T16:23:36.637Z,375
2014-10-17T16:23:54.841Z,365
2014-10-17T16:24:13.032Z,367
2014-10-17T16:24:31.235Z,346
2014-10-17T16:24:49.438Z,371
2014-10-17T16:25:07.642Z,376
2014-10-17T16:25:25.846Z,0
2014-10-17T16:25:44.033Z,0
2014-10-17T16:26:02.236Z,0
2014-10-17T16:26:20.427Z,0
2014-10-17T16:26:38.630Z,0
2014-10-17T16:26:56.833Z,0
2014-10-17T16:27:15.023Z,0
2014-10-17T16:27:33.227Z,0
2014-10-17T16:27:51.430Z,0
2014-10-17T16:28:09.617Z,0
2014-10-17T16:28:27.822Z,0
2014-10-17T16:28:46.010Z,0
2014-10-17T16:29:04.213Z,0
2014-10-17T16:29:22.418Z,0
2014-10-17T16:29:40.606Z,0
2014-10-17T16:29:58.809Z,0
2014-10-17T16:30:16.996Z,0
2014-10-17T16:30:35.187Z,0
2014-10-17T16:30:53.390Z,0
2014-10-17T16:31:11.593Z,0
2014-10-17T16:31:29.798Z,0
2014-10-17T16:31:48.001Z,0
2014-10-17T16:32:06.189Z,0
2014-10-17T16:32:24.392Z,0
2014-10-17T16:32:42.582Z,0
2014-10-17T16:33:00.785Z,0
2014-10-17T16:33:18.973Z,0
2014-10-17T16:33:37.178Z,0
2014-10-17T16:33:55.366Z,0
2014-10-17T16:34:13.569Z,0
2014-10-17T16:34:31.756Z,0
2014-10-17T16:34:49.962Z,0
2014-10-17T16:35:08.150Z,0
2014-10-17T16:35:26.353Z,0
2014-10-17T16:35:44.542Z,0
2014-10-17T16:36:02.746Z,0
2014-10-17T16:36:20.949Z,0
2014-10-17T16:36:39.136Z,0
2014-10-17T16:36:57.342Z,0
2014-10-17T16:37:15.530Z,0
2014-10-17T16:37:33.733Z,0
2014-10-17T16:37:51.922Z,0
2014-10-17T16:38:10.126Z,0
2014-10-17T16:38:28.313Z,0
2014-10-17T16:38:46.516Z,0
2014-10-17T16:39:04.706Z,0
2014-10-17T16:39:22.909Z,0
2014-10-17T16:39:41.096Z,0
2014-10-17T16:39:59.302Z,0
2014-10-17T16:40:17.506Z,0
2014-10-17T16:40:35.693Z,0
2014-10-17T16:40:53.896Z,0
2014-10-17T16:41:12.086Z,0
2014-10-17T16:41:30.289Z,0
2014-10-17T16:41:48.476Z,0
2014-10-17T16:42:06.682Z,0
2014-10-17T16:42:24.886Z,0
2014-10-17T16:42:43.073Z,0
2014-10-17T16:43:01.276Z,0
2014-10-17T16:43:19.481Z,0
2014-10-17T16:43:37.669Z,0
2014-10-17T16:43:55.856Z,0
2014-10-17T16:44:14.062Z,0
2014-10-17T16:44:32.250Z,0
2014-10-17T16:44:50.453Z,0
2014-10-17T16:45:08.641Z,0
2014-10-17T16:45:26.846Z,0
2014-10-17T16:45:45.033Z,0
2014-10-17T16:46:03.236Z,0
2014-10-17T16:46:21.427Z,0
2014-10-17T16:46:39.630Z,0
2014-10-17T16:46:57.817Z,0
2014-10-17T16:47:16.021Z,0
2014-10-17T16:47:34.210Z,0
2014-10-17T16:47:52.398Z,0
2014-10-17T16:48:10.601Z,0
2014-10-17T16:48:28.790Z,0
2014-10-17T16:48:46.993Z,0
2014-10-17T16:49:05.181Z,0
2014-10-17T16:49:23.368Z,0
2014-10-17T16:49:41.574Z,0
2014-10-17T16:49:59.762Z,0
2014-10-17T16:50:17.949Z,0
2014-10-17T16:50:36.155Z,0
2014-10-17T16:50:54.342Z,0
2014-10-17T16:51:12.545Z,0
2014-10-17T16:51:30.733Z,0
2014-10-17T16:51:48.939Z,0
2014-10-17T16:52:07.126Z,0
2014-10-17T16:52:25.329Z,0
2014-10-17T16:52:43.520Z,0
2014-10-17T16:53:01.707Z,0
2014-10-17T16:53:19.911Z,0
2014-10-17T16:53:38.098Z,0
2014-10-17T16:53:56.303Z,0
2014-10-17T16:54:14.506Z,0
2014-10-17T16:54:32.694Z,0
2014-10-17T16:54:50.900Z,0
2014-10-17T16:55:09.087Z,0
2014-10-17T16:55:27.291Z,0
2014-10-17T16:55:45.494Z,0
2014-10-17T16:56:03.699Z,0
2014-10-17T16:56:21.902Z,0
2014-10-17T16:56:40.105Z,0
2014-10-17T16:56:58.295Z,0
2014-10-17T16:57:16.498Z,0
2014-10-17T16:57:34.685Z,0
2014-10-17T16:57:52.888Z,0
2014-10-17T16:58:11.079Z,0
2014-10-17T16:58:29.282Z,0
2014-10-17T16:58:47.469Z,0
2014-10-17T16:59:05.675Z,0
2014-10-17T16:59:23.878Z,0
2014-10-17T16:59:42.065Z,0
2014-10-17T17:00:00.268Z,0
2014-10-17T17:00:18.458Z,0
2014-10-17T17:00:36.661Z,0
2014-10-17T17:00:54.864Z,0
2014-10-17T17:01:13.055Z,0
2014-10-17T17:01:31.258Z,0
2014-10-17T17:01:49.445Z,0
2014-10-17T17:02:07.648Z,0
2014-10-17T17:02:25.838Z,0
2014-10-17T17:02:44.041Z,0
2014-10-17T17:03:02.228Z,0
2014-10-17T17:03:20.435Z,0
2014-10-17T17:03:38.622Z,0
2014-10-17T17:03:56.825Z,0
2014-10-17T17:04:15.013Z,0
2014-10-17T17:04:33.218Z,0
2014-10-17T17:04:51.405Z,0
2014-10-17T17:05:09.608Z,0
2014-10-17T17:05:27.799Z,0
2014-10-17T17:05:46.002Z,0
2014-10-17T17:06:04.190Z,0
2014-10-17T17:06:22.393Z,0
2014-10-17T17:06:40.599Z,0
2014-10-17T17:06:58.786Z,0
2014-10-17T17:07:16.989Z,0
2014-10-17T17:07:35.179Z,0
2014-10-17T17:07:53.382Z,0
2014-10-17T17:08:11.585Z,0
2014-10-17T17:08:29.773Z,0
2014-10-17T17:08:47.978Z,0
2014-10-17T17:09:06.181Z,0
2014-10-17T17:09:24.368Z,0
2014-10-17T17:09:42.574Z,0
2014-10-17T17:10:00.777Z,0
2014-10-17T17:10:18.964Z,0
2014-10-17T17:10:37.167Z,0
2014-10-17T17:10:55.358Z,0
2014-10-17T17:11:13.561Z,0
2014-10-17T17:11:31.748Z,0
2014-10-17T17:11:49.954Z,0
2014-10-17T17:12:08.141Z,0
2014-10-17T17:12:26.344Z,0
2014-10-17T17:12:44.547Z,0
2014-10-17T17:13:02.738Z,0
2014-10-17T17:13:20.941Z,0
2014-10-17T17:13:39.128Z,0
2014-10-17T17:13:57.334Z,0
2014-10-17T17:14:15.537Z,0
2014-10-17T17:14:33.724Z,0
2014-10-17T17:14:51.927Z,0
2014-10-17T17:15:10.118Z,0
2014-10-17T17:15:28.321Z,0
2014-10-17T17:15:46.508Z,0
2014-10-17T17:16:04.714Z,0
2014-10-17T17:16:22.901Z,0
2014-10-17T17:16:41.104Z,0
2014-10-17T17:16:59.292Z,0
2014-10-17T17:17:17.498Z,0
2014-10-17T17:17:35.701Z,0
2014-10-17T17:17:53.888Z,0
2014-10-17T17:18:12.094Z,0
2014-10-17T17:18:30.281Z,0
2014-10-17T17:18:48.484Z,0
2014-10-17T17:19:06.687Z,0
2014-10-17T17:19:24.877Z,0
2014-10-17T17:19:43.080Z,0
2014-10-17T17:20:01.267Z,0
2014-10-17T17:20:19.474Z,0
2014-10-17T17:20:37.677Z,0
2014-10-17T17:20:55.864Z,0
2014-10-17T17:21:14.067Z,0
2014-10-17T17:21:32.272Z,0
2014-10-17T17:21:50.460Z,0
2014-10-17T17:22:08.663Z,0
2014-10-17T17:22:26.868Z,0
2014-10-17T17:22:45.056Z,0
2014-10-17T17:23:03.259Z,0
2014-10-17T17:23:21.446Z,0
2014-10-17T17:23:39.652Z,0
2014-10-17T17:23:57.856Z,0
2014-10-17T17:24:16.043Z,0
2014-10-17T17:24:34.248Z,0
2014-10-17T17:24:52.436Z,0
2014-10-17T17:25:10.639Z,0
2014-10-17T17:25:28.826Z,0
2014-10-17T17:25:47.032Z,0
2014-10-17T17:26:05.220Z,0
2014-10-17T17:26:23.423Z,0
2014-10-17T17:26:41.614Z,0
2014-10-17T17:26:59.817Z,0
2014-10-17T17:27:18.020Z,0
2014-10-17T17:27:36.207Z,0
2014-10-17T17:27:54.428Z,0
2014-10-17T17:28:12.616Z,0
2014-10-17T17:28:30.803Z,0
2014-10-17T17:28:49.008Z,0
2014-10-17T17:29:07.211Z,0
2014-10-17T17:29:25.399Z,0
2014-10-17T17:29:43.602Z,0
2014-10-17T17:30:01.808Z,0
2014-10-17T17:30:19.996Z,0
2014-10-17T17:30:38.199Z,0
2014-10-17T17:30:56.388Z,0
2014-10-17T17:31:14.591Z,0
2014-10-17T17:31:32.779Z,0
2014-10-17T17:31:50.982Z,0
2014-10-17T17:32:09.171Z,0
2014-10-17T17:32:27.375Z,0
2014-10-17T17:32:45.578Z,0
2014-10-17T17:33:03.785Z,0
2014-10-17T17:33:21.972Z,0
2014-10-17T17:33:40.175Z,0
2014-10-17T17:33:58.363Z,0
2014-10-17T17:34:16.568Z,0
2014-10-17T17:34:34.756Z,0
2014-10-17T17:34:52.959Z,0
2014-10-17T17:35:11.164Z,0
2014-10-17T17:35:29.367Z,0
2014-10-17T17:35:47.554Z,0
2014-10-17T17:36:05.742Z,0
2014-10-17T17:36:23.948Z,0
2014-10-17T17:36:42.151Z,0
2014-10-17T17:37:00.339Z,0
2014-10-17T17:37:18.544Z,0
2014-10-17T17:37:36.747Z,0
2014-10-17T17:37:54.934Z,0
2014-10-17T17:38:13.138Z,0
2014-10-17T17:38:31.328Z,0
2014-10-17T17:38:49.531Z,0
2014-10-17T17:39:07.719Z,0
2014-10-17T17:39:25.924Z,0
2014-10-17T17:39:44.127Z,0
2014-10-17T17:40:02.314Z,0
2014-10-17T17:40:20.518Z,0
2014-10-17T17:40:38.708Z,0
2014-10-17T17:40:56.911Z,0
2014-10-17T17:41:15.114Z,0
2014-10-17T17:41:33.304Z,0
2014-10-17T17:41:51.507Z,0
2014-10-17T17:42:09.710Z,0
2014-10-17T17:42:27.898Z,0
2014-10-17T17:42:46.104Z,0
2014-10-17T17:43:04.291Z,0
2014-10-17T17:43:22.494Z,0
2014-10-17T17:43:40.684Z,0
2014-10-17T17:43:58.903Z,0
2014-10-17T17:44:17.090Z,0
2014-10-17T17:44:35.278Z,0
2014-10-17T17:44:53.483Z,0
2014-10-17T17:45:11.686Z,0
2014-10-17T17:45:29.873Z,0
2014-10-17T17:45:48.078Z,0
2014-10-17T17:46:06.282Z,0
2014-10-17T17:46:24.469Z,0
2014-10-17T17:46:42.672Z,0
2014-10-17T17:47:00.863Z,0
2014-10-17T17:47:19.066Z,0
2014-10-17T17:47:37.269Z,0
2014-10-17T17:47:55.458Z,0
2014-10-17T17:48:13.662Z,0
2014-10-17T17:48:31.865Z,0
2014-10-17T17:48:50.068Z,0
2014-10-17T17:49:08.258Z,0
2014-10-17T17:49:26.461Z,0
2014-10-17T17:49:44.649Z,0
2014-10-17T17:50:02.854Z,0
2014-10-17T17:50:21.057Z,0
2014-10-17T17:50:39.245Z,0
2014-10-17T17:50:57.448Z,0
2014-10-17T17:51:15.638Z,0
2014-10-17T17:51:33.841Z,0
2014-10-17T17:51:52.029Z,0
2014-10-17T17:52:10.234Z,0
2014-10-17T17:52:28.437Z,0
2014-10-17T17:52:46.625Z,0
2014-10-17T17:53:04.828Z,0
2014-10-17T17:53:23.018Z,0
2014-10-17T17:53:41.221Z,0
2014-10-17T17:53:59.425Z,0
2014-10-17T17:54:17.614Z,0
2014-10-17T17:54:35.817Z,0
2014-10-17T17:54:54.005Z,0
2014-10-17T17:55:12.208Z,0
2014-10-17T17:55:30.414Z,0
2014-10-17T17:55:48.617Z,0
2014-10-17T17:56:06.805Z,0
2014-10-17T17:56:25.010Z,0
2014-10-17T17:56:43.213Z,0
2014-10-17T17:57:01.400Z,0
2014-10-17T17:57:19.603Z,0
2014-10-17T17:57:37.794Z,0
2014-10-17T17:57:56.013Z,0
2014-10-17T17:58:14.200Z,0
2014-10-17T17:58:32.390Z,0
2014-10-17T17:58:50.593Z,0
2014-10-17T17:59:08.796Z,0
2014-10-17T17:59:26.983Z,0
2014-10-17T17:59:45.189Z,0
2014-10-17T18:00:03.392Z,0
2014-10-17T18:00:21.579Z,0
2014-10-17T18:00:39.785Z,0
2014-10-17T18:00:57.988Z,0
2014-10-17T18:01:16.176Z,0
2014-10-17T18:01:34.379Z,0
2014-10-17T18:01:52.584Z,0
2014-10-17T18:02:10.772Z,0
2014-10-17T18:02:28.975Z,0
2014-10-17T18:02:47.181Z,0
2014-10-17T18:03:05.368Z,0
2014-10-17T18:03:23.572Z,0
2014-10-17T18:03:41.775Z,0
2014-10-17T18:03:59.965Z,0
2014-10-17T18:04:18.168Z,0
2014-10-17T18:04:36.356Z,0
2014-10-17T18:04:54.561Z,0
2014-10-17T18:05:12.748Z,0